Time;durP1;ratioP1;P1;durP2;ratioP2;P2;SDS_P1;SDS_P2;PMS_P1;PMS_P2;Temp;Humidity;BMP_temperature;BMP_pressure;BME280_temperature;BME280_humidity;BME280_pressure;Samples;Min_cycle;Max_cycle;Signal;HPM_P1;HPM_P2
2022/08/11 00:01:13;445637.00;1.49;768.28;40478.00;0.13;70.72;;;;;21.00;1.00;;;;;;2262045;61;1133;-82
2022/08/11 00:03:46;198028.00;0.66;342.53;0.00;0.00;0.62;;;;;21.00;1.00;;;;;;2262157;61;1139;-82
2022/08/11 00:06:16;165163.00;0.55;285.93;0.00;0.00;0.62;;;;;20.90;1.00;;;;;;2261875;61;2013;-81
2022/08/11 00:08:49;142617.00;0.48;247.08;1480.00;0.00;3.19;;;;;21.20;1.00;;;;;;2262073;61;1585;-81
2022/08/11 00:11:19;283998.00;0.95;490.41;14505.00;0.05;25.75;;;;;21.60;1.00;;;;;;2261989;61;1125;-82
2022/08/11 00:13:49;274558.00;0.92;474.18;0.00;0.00;0.62;;;;;21.90;1.00;;;;;;2262005;61;1164;-81
2022/08/11 00:16:19;402287.00;1.34;693.74;22859.00;0.08;40.22;;;;;22.00;1.00;;;;;;2262127;61;1532;-81
2022/08/11 00:18:50;240689.00;0.80;415.94;2294.00;0.01;4.60;;;;;21.60;1.00;;;;;;2267961;61;1215;-82
2022/08/11 00:21:20;43947.00;0.15;76.72;0.00;0.00;0.62;;;;;21.30;1.00;;;;;;2267834;61;1167;-82
2022/08/11 00:23:54;110689.00;0.37;192.02;0.00;0.00;0.62;;;;;21.10;1.00;;;;;;2261825;61;1044;-81
2022/08/11 00:26:23;0.00;0.00;0.62;0.00;0.00;0.62;;;;;21.00;1.00;;;;;;2261435;61;1947;-82
2022/08/11 00:28:51;0.00;0.00;0.62;0.00;0.00;0.62;;;;;20.90;1.00;;;;;;2261628;61;1097;-81
2022/08/11 00:31:26;0.00;0.00;0.62;0.00;0.00;0.62;;;;;21.00;1.00;;;;;;2261795;61;1129;-82
2022/08/11 00:33:54;169502.00;0.57;293.41;0.00;0.00;0.62;;;;;21.10;1.00;;;;;;2261480;61;1633;-81
2022/08/11 00:36:27;110366.00;0.37;191.46;0.00;0.00;0.62;;;;;21.20;1.00;;;;;;2261887;61;1339;-82
2022/08/11 00:39:02;0.00;0.00;0.62;0.00;0.00;0.62;;;;;20.90;1.00;;;;;;2267656;61;1095;-82
2022/08/11 00:41:36;94018.00;0.31;163.25;0.00;0.00;0.62;;;;;21.00;1.00;;;;;;2261670;61;1126;-81
2022/08/11 00:44:27;102731.00;0.34;178.29;0.00;0.00;0.62;;;;;21.30;1.00;;;;;;2261722;61;1093;-83
2022/08/11 00:47:02;597913.00;1.99;1030.62;32502.00;0.11;56.91;;;;;21.70;1.00;;;;;;2260927;61;2017;-82
2022/08/11 00:49:53;567341.00;1.89;977.86;0.00;0.00;0.62;;;;;21.90;1.00;;;;;;2261139;61;1144;-82
2022/08/11 00:52:39;481169.00;1.60;829.41;18724.00;0.06;33.06;;;;;21.60;1.00;;;;;;2260719;61;1703;-82
2022/08/11 00:55:43;390650.00;1.30;673.73;14725.00;0.05;26.13;;;;;21.60;1.00;;;;;;2260803;61;1451;-82
2022/08/11 00:58:49;122956.00;0.41;213.18;0.00;0.00;0.62;;;;;21.50;1.00;;;;;;2260818;61;1256;-82
2022/08/11 01:01:27;29028.00;0.10;50.90;0.00;0.00;0.62;;;;;21.40;1.00;;;;;;2261329;61;1094;-81
2022/08/11 01:04:41;0.00;0.00;0.62;0.00;0.00;0.62;;;;;21.20;1.00;;;;;;2261290;61;1165;-82
2022/08/11 01:07:34;0.00;0.00;0.62;0.00;0.00;0.62;;;;;21.00;1.00;;;;;;2248559;61;2022;-81
2022/08/11 01:10:29;0.00;0.00;0.62;0.00;0.00;0.62;;;;;20.70;1.00;;;;;;2255954;61;1230;-81
2022/08/11 01:13:12;0.00;0.00;0.62;0.00;0.00;0.62;;;;;20.70;1.00;;;;;;2261823;61;1219;-82
2022/08/11 01:16:21;13183.00;0.04;23.46;0.00;0.00;0.62;;;;;20.70;1.00;;;;;;2268042;61;1378;-83
2022/08/11 01:19:33;160818.00;0.54;278.45;0.00;0.00;0.62;;;;;21.30;1.00;;;;;;2264311;61;1173;-81
2022/08/11 01:22:51;249311.00;0.83;430.77;41470.00;0.14;72.43;;;;;21.50;1.00;;;;;;2260087;61;1161;-82
2022/08/11 01:26:01;0.00;0.00;0.62;0.00;0.00;0.62;;;;;21.70;1.00;;;;;;2260449;61;1999;-82
2022/08/11 01:29:12;10068.00;0.03;18.07;0.00;0.00;0.62;;;;;21.50;1.00;;;;;;2261116;61;1183;-82
2022/08/11 01:32:17;52096.00;0.17;90.81;0.00;0.00;0.62;;;;;21.50;1.00;;;;;;2259816;61;1236;-83
2022/08/11 01:35:29;181681.00;0.61;314.38;46127.00;0.15;80.49;;;;;21.70;1.00;;;;;;2261512;61;1872;-81
2022/08/11 01:38:40;345934.00;1.15;596.87;83358.00;0.28;144.84;;;;;21.60;1.00;;;;;;2261943;61;1073;-81
2022/08/11 01:44:43;102974.00;0.34;178.71;0.00;0.00;0.62;;;;;21.30;1.00;;;;;;2261983;61;1364;-83
2022/08/11 01:50:30;87885.00;0.29;152.66;0.00;0.00;0.62;;;;;21.70;1.00;;;;;;2261340;61;1329;-83
2022/08/11 01:53:17;0.00;0.00;0.62;0.00;0.00;0.62;;;;;21.80;1.00;;;;;;2263976;61;1147;-83
2022/08/11 01:55:56;0.00;0.00;0.62;0.00;0.00;0.62;;;;;22.10;1.00;;;;;;2265732;61;1490;-81
2022/08/11 01:58:33;0.00;0.00;0.62;0.00;0.00;0.62;;;;;22.30;1.00;;;;;;2261617;61;1644;-81
2022/08/11 02:01:12;0.00;0.00;0.62;0.00;0.00;0.62;;;;;22.30;1.00;;;;;;2262203;61;1151;-83
2022/08/11 02:03:48;20281.00;0.07;35.76;0.00;0.00;0.62;;;;;22.60;1.00;;;;;;2268640;61;1152;-83
2022/08/11 02:09:20;122961.00;0.41;213.19;0.00;0.00;0.62;;;;;22.80;1.00;;;;;;2261359;61;725;-81
2022/08/11 02:11:49;2295.00;0.01;4.60;0.00;0.00;0.62;;;;;22.80;1.00;;;;;;2261779;61;1085;-81
2022/08/11 02:14:29;0.00;0.00;0.62;0.00;0.00;0.62;;;;;22.90;1.00;;;;;;2261671;61;1363;-81
2022/08/11 02:17:12;0.00;0.00;0.62;0.00;0.00;0.62;;;;;22.90;1.00;;;;;;2261986;61;1088;-81
2022/08/11 02:25:39;124051.00;0.41;215.07;57312.00;0.19;99.83;;;;;22.50;1.00;;;;;;2264818;61;1935;-82
2022/08/11 02:28:18;0.00;0.00;0.62;0.00;0.00;0.62;;;;;22.50;1.00;;;;;;2266835;61;2322;-84
2022/08/11 02:33:43;22879.00;0.08;40.26;0.00;0.00;0.62;;;;;21.90;1.00;;;;;;2266921;61;1197;-83
2022/08/11 02:36:18;21175.00;0.07;37.30;0.00;0.00;0.62;;;;;22.10;1.00;;;;;;2262840;61;1380;-81
2022/08/11 02:38:58;0.00;0.00;0.62;0.00;0.00;0.62;;;;;22.20;1.00;;;;;;2261975;61;1072;-81
2022/08/11 02:44:34;0.00;0.00;0.62;0.00;0.00;0.62;;;;;22.30;1.00;;;;;;2266915;61;1310;-83
2022/08/11 02:47:09;0.00;0.00;0.62;0.00;0.00;0.62;;;;;22.30;1.00;;;;;;2264629;61;1990;-83
2022/08/11 02:49:53;31489.00;0.10;55.16;0.00;0.00;0.62;;;;;22.30;1.00;;;;;;2262724;61;1136;-82
2022/08/11 02:52:31;198208.00;0.66;342.84;0.00;0.00;0.62;;;;;22.40;1.00;;;;;;2261723;61;1163;-82
2022/08/11 02:55:22;716979.00;2.39;1236.69;62253.00;0.21;108.37;;;;;22.20;1.00;;;;;;2261490;61;1459;-82
2022/08/11 02:57:56;125982.00;0.42;218.40;18079.00;0.06;31.94;;;;;21.60;1.00;;;;;;2260403;61;1316;-82
2022/08/11 03:00:26;0.00;0.00;0.62;0.00;0.00;0.62;;;;;21.90;1.00;;;;;;2261766;61;1318;-81
2022/08/11 03:03:07;72497.00;0.24;126.08;0.00;0.00;0.62;;;;;22.20;1.00;;;;;;2262081;61;1701;-81
2022/08/11 03:05:54;92891.00;0.31;161.30;0.00;0.00;0.62;;;;;22.10;1.00;;;;;;2262170;61;1570;-81
2022/08/11 03:08:36;0.00;0.00;0.62;0.00;0.00;0.62;;;;;22.40;1.00;;;;;;2265579;61;1108;-83
2022/08/11 03:17:13;173890.00;0.58;300.97;15847.00;0.05;28.08;;;;;22.30;1.00;;;;;;2261809;61;752;-82
2022/08/11 03:19:51;733628.00;2.45;1265.60;30052.00;0.10;52.67;;;;;22.10;1.00;;;;;;2262055;61;1104;-82
2022/08/11 03:22:24;511274.00;1.70;881.24;42552.00;0.14;74.30;;;;;22.30;1.00;;;;;;2262536;61;1109;-82
2022/08/11 03:25:00;219290.00;0.73;379.12;73330.00;0.24;127.51;;;;;22.40;1.00;;;;;;2261817;61;1453;-81
2022/08/11 03:27:50;563679.00;1.88;971.54;154937.00;0.52;268.32;;;;;22.40;1.00;;;;;;2261622;61;2019;-82
2022/08/11 03:30:25;893976.00;2.98;1545.54;93025.00;0.31;161.53;;;;;22.20;1.00;;;;;;2261892;61;1597;-83
2022/08/11 03:36:10;246190.00;0.82;425.40;16433.00;0.05;29.09;;;;;21.40;1.00;;;;;;2268438;61;1318;-86
2022/08/11 03:39:06;912959.00;3.04;1578.89;67920.00;0.23;118.17;;;;;21.30;1.00;;;;;;2268412;61;2225;-84
2022/08/11 03:41:43;629664.00;2.10;1085.47;63514.00;0.21;110.55;;;;;21.30;1.00;;;;;;2268442;61;1043;-86
2022/08/11 03:44:32;915595.00;3.05;1583.53;141047.00;0.47;244.38;;;;;21.50;1.00;;;;;;2268409;61;1459;-85
2022/08/11 03:47:12;491910.00;1.64;847.90;56288.00;0.19;98.06;;;;;21.40;1.00;;;;;;2268161;61;1923;-87
2022/08/11 03:50:00;297873.00;0.99;514.26;17026.00;0.06;30.12;;;;;21.60;1.00;;;;;;2268404;61;1106;-86
2022/08/11 03:52:42;138590112.00;461.97;107878288.00;137682816.00;458.94;105771272.00;;;;;21.70;1.00;;;;;;2268287;61;1043;-87
2022/08/11 03:55:15;889746.00;2.97;1538.12;63061.00;0.21;109.77;;;;;21.80;1.00;;;;;;2264758;61;1412;-81
2022/08/11 03:58:15;209296.00;0.70;361.92;5262.00;0.02;9.74;;;;;21.60;1.00;;;;;;2268152;61;1183;-82
2022/08/11 04:01:05;435517.00;1.45;750.87;1856.00;0.01;3.84;;;;;21.50;1.00;;;;;;2260406;61;1207;-83
2022/08/11 04:04:10;267757.00;0.89;462.49;74465.00;0.25;129.48;;;;;21.70;1.00;;;;;;2261344;61;1105;-83
2022/08/11 04:07:22;210600.00;0.70;364.17;21910.00;0.07;38.58;;;;;21.50;1.00;;;;;;2261494;61;2018;-82
2022/08/11 04:10:28;315679.00;1.05;544.87;30245.00;0.10;53.01;;;;;21.40;1.00;;;;;;2260145;61;1467;-82
2022/08/11 04:13:29;434693.00;1.45;749.46;38398.00;0.13;67.12;;;;;21.20;1.00;;;;;;2261921;61;1114;-82
2022/08/11 04:16:14;276199.00;0.92;477.00;15910.00;0.05;28.19;;;;;21.10;1.00;;;;;;2261902;61;1250;-82
2022/08/11 04:19:13;106683.00;0.36;185.11;24799.00;0.08;43.58;;;;;21.20;1.00;;;;;;2261504;61;1188;-84
2022/08/11 04:22:16;93605.00;0.31;162.53;22902.00;0.08;40.30;;;;;21.20;1.00;;;;;;2263679;61;970;-82
2022/08/11 04:25:23;0.00;0.00;0.62;0.00;0.00;0.62;;;;;21.40;1.00;;;;;;2261443;61;1468;-81
2022/08/11 04:28:32;265434.00;0.88;458.49;76720.00;0.26;133.37;;;;;21.50;1.00;;;;;;2268235;61;1923;-87
2022/08/11 04:31:19;360894.00;1.20;622.59;100666.00;0.34;174.72;;;;;21.60;1.00;;;;;;2262329;61;1130;-83
2022/08/11 04:34:08;497762.00;1.66;857.97;82018.00;0.27;142.52;;;;;21.70;1.00;;;;;;2261911;61;1064;-81
2022/08/11 04:40:12;347018.00;1.16;598.74;31233.00;0.10;54.72;;;;;21.70;1.00;;;;;;2261479;61;804;-83
2022/08/11 04:43:39;222966.00;0.74;385.45;77081.00;0.26;133.99;;;;;22.20;1.00;;;;;;2260745;61;1266;-82
2022/08/11 04:46:40;156463.00;0.52;270.94;0.00;0.00;0.62;;;;;22.20;1.00;;;;;;2261078;61;2022;-82
2022/08/11 05:02:23;0.00;0.00;0.62;0.00;0.00;0.62;;;;;22.60;1.00;;;;;;2261847;61;1032;-82
2022/08/11 05:08:44;132911.00;0.44;230.35;0.00;0.00;0.62;;;;;22.50;1.00;;;;;;2262198;61;1943;-82
2022/08/11 05:11:57;0.00;0.00;0.62;0.00;0.00;0.62;;;;;22.40;1.00;;;;;;2252918;61;1140;-82
2022/08/11 05:34:52;0.00;0.00;0.62;0.00;0.00;0.62;;;;;22.30;1.00;;;;;;2262504;61;1325;-83
2022/08/11 05:37:25;0.00;0.00;0.62;0.00;0.00;0.62;;;;;22.60;1.00;;;;;;2262762;61;1709;-83
2022/08/11 05:56:44;0.00;0.00;0.62;0.00;0.00;0.62;;;;;30.80;1.00;;;;;;2261308;61;783;-82
2022/08/11 05:59:17;43347.00;0.14;75.68;0.00;0.00;0.62;;;;;31.70;1.00;;;;;;2261453;61;1163;-83
2022/08/11 06:01:46;0.00;0.00;0.62;0.00;0.00;0.62;;;;;32.30;1.00;;;;;;2261656;61;1033;-83
2022/08/11 06:04:20;0.00;0.00;0.62;0.00;0.00;0.62;;;;;32.80;1.00;;;;;;2261929;61;1258;-83
2022/08/11 06:06:53;0.00;0.00;0.62;0.00;0.00;0.62;;;;;33.20;1.00;;;;;;2261787;61;2002;-82
2022/08/11 06:09:32;0.00;0.00;0.62;0.00;0.00;0.62;;;;;33.20;1.00;;;;;;2267403;61;1156;-83
2022/08/11 06:12:04;5107.00;0.02;9.47;0.00;0.00;0.62;;;;;33.20;1.00;;;;;;2268749;61;1209;-83
2022/08/11 06:14:32;29628.00;0.10;51.94;0.00;0.00;0.62;;;;;33.70;1.00;;;;;;2266711;61;1383;-83
2022/08/11 06:17:02;25974.00;0.09;45.61;0.00;0.00;0.62;;;;;33.50;1.00;;;;;;2264548;61;1562;-83
2022/08/11 06:19:35;143555.00;0.48;248.70;28048.00;0.09;49.20;;;;;33.60;1.00;;;;;;2267539;61;1160;-86
2022/08/11 06:22:06;59877.00;0.20;104.26;0.00;0.00;0.62;;;;;33.60;1.00;;;;;;2264515;61;1047;-84
2022/08/11 06:24:36;277048.00;0.92;478.46;0.00;0.00;0.62;;;;;33.80;1.00;;;;;;2264185;61;1471;-83
2022/08/11 06:27:06;0.00;0.00;0.62;0.00;0.00;0.62;;;;;33.70;1.00;;;;;;2264660;61;1924;-83
2022/08/11 06:29:40;10146.00;0.03;18.20;0.00;0.00;0.62;;;;;33.60;1.00;;;;;;2263840;61;1195;-83
2022/08/11 06:32:13;98621.00;0.33;171.19;10284.00;0.03;18.44;;;;;34.30;1.00;;;;;;2264855;61;1229;-83
2022/08/11 06:34:58;0.00;0.00;0.62;0.00;0.00;0.62;;;;;34.00;1.00;;;;;;2265836;61;1655;-84
2022/08/11 06:37:39;182700.00;0.61;316.14;41125.00;0.14;71.83;;;;;33.10;1.00;;;;;;2266503;61;1057;-86
2022/08/11 06:40:15;44715.00;0.15;78.05;0.00;0.00;0.62;;;;;33.00;1.00;;;;;;2268483;61;1441;-87
2022/08/11 06:42:53;289019.00;0.96;499.04;0.00;0.00;0.62;;;;;32.80;1.00;;;;;;2268367;61;1640;-84
2022/08/11 06:45:35;102828.00;0.34;178.45;0.00;0.00;0.62;;;;;32.40;1.00;;;;;;2266447;61;1313;-83
2022/08/11 06:48:05;506019.00;1.69;872.19;95656.00;0.32;166.07;;;;;32.00;1.00;;;;;;2265805;61;1928;-84
2022/08/11 06:53:21;74056.00;0.25;128.77;0.00;0.00;0.62;;;;;33.00;1.00;;;;;;2268768;61;718;-86
2022/08/11 07:01:36;62978.00;0.21;109.62;0.00;0.00;0.62;;;;;34.40;1.00;;;;;;2268139;61;967;-84
2022/08/11 07:04:08;0.00;0.00;0.62;0.00;0.00;0.62;;;;;34.10;1.00;;;;;;2281128;55;3746;-84
2022/08/11 07:15:40;108024.00;0.36;187.42;0.00;0.00;0.62;;;;;33.60;1.00;;;;;;2263361;61;1995;-84
2022/08/11 07:15:48;0.00;0.00;0.62;0.00;0.00;0.62;;;;;31.70;1.00;;;;;;2264033;61;1383;-87
2022/08/11 07:29:45;303050.00;1.01;523.16;101066.00;0.34;175.41;;;;;33.80;1.00;;;;;;2263969;61;779;-84
2022/08/11 07:32:22;107047.00;0.36;185.73;41790.00;0.14;72.99;;;;;33.70;1.00;;;;;;2264179;61;1117;-88
2022/08/11 07:34:55;81622.00;0.27;141.84;0.00;0.00;0.62;;;;;33.20;1.00;;;;;;2264368;61;1287;-86
2022/08/11 07:37:27;57291.00;0.19;99.79;0.00;0.00;0.62;;;;;33.70;1.00;;;;;;2264055;61;1513;-84
2022/08/11 07:39:58;46788.00;0.16;81.63;0.00;0.00;0.62;;;;;33.90;1.00;;;;;;2264142;61;1072;-85
2022/08/11 07:42:34;108234.00;0.36;187.78;0.00;0.00;0.62;;;;;34.10;1.00;;;;;;2264220;61;1572;-85
2022/08/11 07:53:27;0.00;0.00;0.62;0.00;0.00;0.62;;;;;33.30;1.00;;;;;;2264339;61;656;-87
2022/08/11 07:55:57;47611.00;0.16;83.05;0.00;0.00;0.62;;;;;33.40;1.00;;;;;;2264236;61;1317;-86
2022/08/11 08:18:00;0.00;0.00;0.62;0.00;0.00;0.62;;;;;31.70;1.00;;;;;;2263996;61;697;-85
2022/08/11 08:20:31;0.00;0.00;0.62;0.00;0.00;0.62;;;;;31.20;1.00;;;;;;2263815;61;1590;-84
2022/08/11 08:23:01;0.00;0.00;0.62;0.00;0.00;0.62;;;;;30.70;1.00;;;;;;2262778;61;1153;-85
2022/08/11 08:25:31;406.00;0.00;1.32;0.00;0.00;0.62;;;;;30.30;1.00;;;;;;2262992;61;1609;-84
2022/08/11 08:28:01;0.00;0.00;0.62;0.00;0.00;0.62;;;;;29.80;1.00;;;;;;2263410;61;2003;-84
2022/08/11 08:30:49;182942.00;0.61;316.56;0.00;0.00;0.62;;;;;29.20;1.00;;;;;;2263042;61;1142;-85
2022/08/11 08:33:20;446623.00;1.49;769.97;86122.00;0.29;149.61;;;;;30.10;1.00;;;;;;2263839;61;1601;-85
2022/08/11 08:35:51;288319.00;0.96;497.84;73250.00;0.24;127.38;;;;;31.00;1.00;;;;;;2262894;61;1759;-85
2022/08/11 08:38:20;60896.00;0.20;106.03;0.00;0.00;0.62;;;;;30.70;1.00;;;;;;2263916;61;1073;-85
2022/08/11 08:40:52;95416.00;0.32;165.66;0.00;0.00;0.62;;;;;30.40;1.00;;;;;;2264233;61;1104;-84
2022/08/11 08:43:21;77522.00;0.26;134.76;0.00;0.00;0.62;;;;;30.80;1.00;;;;;;2264247;61;1160;-84
2022/08/11 08:48:23;843700.00;2.81;1457.45;0.00;0.00;0.62;;;;;30.00;1.00;;;;;;2274686;40;3499;-89
2022/08/11 08:53:51;20978.00;0.07;36.96;0.00;0.00;0.62;;;;;30.60;1.00;;;;;;2268531;61;697;-85
2022/08/11 08:56:20;94349.00;0.31;163.82;0.00;0.00;0.62;;;;;31.00;1.00;;;;;;2267886;61;1421;-84
2022/08/11 08:58:50;94034.00;0.31;163.27;0.00;0.00;0.62;;;;;30.80;1.00;;;;;;2268305;61;1012;-84
2022/08/11 09:01:24;163843.00;0.55;283.66;0.00;0.00;0.62;;;;;30.70;1.00;;;;;;2268199;61;1405;-85
2022/08/11 09:03:53;124560.00;0.42;215.95;0.00;0.00;0.62;;;;;31.40;1.00;;;;;;2268267;61;1689;-85
2022/08/11 09:06:20;146129.00;0.49;253.14;0.00;0.00;0.62;;;;;31.70;1.00;;;;;;2268451;61;1242;-84
2022/08/11 09:08:48;256726.00;0.86;443.52;69107.00;0.23;120.22;;;;;30.20;1.00;;;;;;2268552;61;1912;-83
2022/08/11 09:14:03;156534.00;0.52;271.07;68073.00;0.23;118.43;;;;;29.00;1.00;;;;;;2268855;61;725;-84
2022/08/11 09:16:31;137960.00;0.46;239.05;0.00;0.00;0.62;;;;;29.40;1.00;;;;;;2269014;61;1438;-86
2022/08/11 09:19:03;203962.00;0.68;352.74;0.00;0.00;0.62;;;;;29.60;1.00;;;;;;2269351;61;1765;-86
2022/08/11 09:21:31;166568.00;0.56;288.35;0.00;0.00;0.62;;;;;29.00;1.00;;;;;;2268980;61;1318;-89
2022/08/11 09:27:01;43900.00;0.15;76.64;0.00;0.00;0.62;;;;;28.80;1.00;;;;;;2268755;61;706;-84
2022/08/11 09:29:30;0.00;0.00;0.62;0.00;0.00;0.62;;;;;28.50;1.00;;;;;;2267818;61;1743;-84
2022/08/11 09:31:59;0.00;0.00;0.62;0.00;0.00;0.62;;;;;28.50;1.00;;;;;;2268133;61;1527;-83
2022/08/11 09:34:29;0.00;0.00;0.62;0.00;0.00;0.62;;;;;28.40;1.00;;;;;;2267748;61;1420;-83
2022/08/11 09:45:11;0.00;0.00;0.62;0.00;0.00;0.62;;;;;29.50;1.00;;;;;;2266789;61;1254;-84
2022/08/11 09:47:40;53420.00;0.18;93.10;0.00;0.00;0.62;;;;;29.90;1.00;;;;;;2266826;61;2022;-85
2022/08/11 09:50:10;0.00;0.00;0.62;0.00;0.00;0.62;;;;;29.70;1.00;;;;;;2268413;61;1521;-85
2022/08/11 09:52:40;65554.00;0.22;114.08;0.00;0.00;0.62;;;;;29.60;1.00;;;;;;2268613;61;1560;-85
2022/08/11 09:55:10;71576.00;0.24;124.48;0.00;0.00;0.62;;;;;30.00;1.00;;;;;;2268372;61;1414;-84
2022/08/11 10:00:29;109399.00;0.36;189.79;26508.00;0.09;46.54;;;;;29.90;1.00;;;;;;2266879;61;709;-83
2022/08/11 10:03:01;104861.00;0.35;181.96;0.00;0.00;0.62;;;;;30.10;1.00;;;;;;2268711;61;1431;-89
2022/08/11 10:08:18;104205.00;0.35;180.83;0.00;0.00;0.62;;;;;30.10;1.00;;;;;;2266479;61;1924;-83
2022/08/11 10:10:47;116401.00;0.39;201.87;50896.00;0.17;88.74;;;;;29.70;1.00;;;;;;2266795;61;1081;-85
2022/08/11 10:13:19;0.00;0.00;0.62;0.00;0.00;0.62;;;;;29.20;1.00;;;;;;2266789;61;1105;-84
2022/08/11 10:15:46;6292.00;0.02;11.52;0.00;0.00;0.62;;;;;29.20;1.00;;;;;;2266577;61;1253;-84
2022/08/11 10:21:23;0.00;0.00;0.62;0.00;0.00;0.62;;;;;29.80;1.00;;;;;;2261520;61;1419;-84
2022/08/11 10:26:59;0.00;0.00;0.62;0.00;0.00;0.62;;;;;29.70;1.00;;;;;;2267139;61;712;-85
2022/08/11 10:35:11;395948.00;1.32;682.84;106389.00;0.35;184.60;;;;;29.80;1.00;;;;;;2267776;61;1404;-85
2022/08/11 10:37:42;176688.00;0.59;305.79;12578.00;0.04;22.42;;;;;30.00;1.00;;;;;;2267877;61;1743;-84
2022/08/11 10:40:15;121337536.00;404.46;72369096.00;63063.00;0.21;109.77;;;;;30.30;1.00;;;;;;2267260;61;1168;-84
2022/08/11 10:48:17;256787.00;0.86;443.62;67902.00;0.23;118.13;;;;;29.10;1.00;;;;;;2266820;61;2005;-84
2022/08/11 10:59:08;297486.00;0.99;513.60;61498.00;0.20;107.07;;;;;29.30;1.00;;;;;;2266200;61;765;-83
2022/08/11 11:01:39;204571.00;0.68;353.79;58321.00;0.19;101.57;;;;;28.90;1.00;;;;;;2266484;61;1152;-83
2022/08/11 11:04:10;254613.00;0.85;439.88;82450.00;0.27;143.27;;;;;29.00;1.00;;;;;;2267146;61;1077;-84
2022/08/11 11:06:48;161288.00;0.54;279.26;55740.00;0.19;97.11;;;;;29.40;1.00;;;;;;2266163;61;1174;-83
2022/08/11 11:09:20;159346.00;0.53;275.91;48483.00;0.16;84.56;;;;;29.40;1.00;;;;;;2266200;61;2002;-84
2022/08/11 11:20:24;365074.00;1.22;629.77;133539.00;0.45;231.43;;;;;29.30;1.00;;;;;;2267478;61;691;-84
2022/08/11 11:23:01;393357.00;1.31;678.39;57490.00;0.19;100.14;;;;;28.90;1.00;;;;;;2266357;61;1723;-83
2022/08/11 11:25:41;292416.00;0.97;504.88;13059.00;0.04;23.25;;;;;28.90;1.00;;;;;;2266538;61;1700;-85
2022/08/11 11:28:28;104917.00;0.35;182.06;0.00;0.00;0.62;;;;;28.30;1.00;;;;;;2266855;61;1925;-82
2022/08/11 11:31:10;184589.00;0.62;319.39;52710.00;0.18;91.87;;;;;28.10;1.00;;;;;;2267206;61;1165;-84
2022/08/11 11:34:00;391028.00;1.30;674.38;62283.00;0.21;108.42;;;;;28.00;1.00;;;;;;2267313;61;1147;-83
2022/08/11 11:36:38;206739.00;0.69;357.52;72667.00;0.24;126.37;;;;;27.90;1.00;;;;;;2266041;61;1245;-83
2022/08/11 11:39:06;104814.00;0.35;181.88;36769.00;0.12;64.30;;;;;28.50;1.00;;;;;;2268206;61;1086;-85
2022/08/11 11:41:36;245505.00;0.82;424.22;50311.00;0.17;87.72;;;;;29.10;1.00;;;;;;2268439;61;1572;-86
2022/08/11 11:44:04;0.00;0.00;0.62;0.00;0.00;0.62;;;;;29.20;1.00;;;;;;2265971;61;1116;-83
2022/08/11 11:46:32;19910.00;0.07;35.11;0.00;0.00;0.62;;;;;29.60;1.00;;;;;;2265714;61;1414;-86
2022/08/11 11:49:05;69739.00;0.23;121.31;0.00;0.00;0.62;;;;;29.90;1.00;;;;;;2266949;61;2009;-84
2022/08/11 11:51:33;36577.00;0.12;63.97;0.00;0.00;0.62;;;;;30.50;1.00;;;;;;2267344;61;1589;-84
2022/08/11 11:54:03;16319.00;0.05;28.90;0.00;0.00;0.62;;;;;29.90;1.00;;;;;;2266573;61;1223;-83
2022/08/11 11:56:31;5701.00;0.02;10.50;0.00;0.00;0.62;;;;;29.40;1.00;;;;;;2266765;61;1766;-85
2022/08/11 12:01:46;0.00;0.00;0.62;0.00;0.00;0.62;;;;;29.60;1.00;;;;;;2267760;61;829;-87
2022/08/11 12:04:17;143330.00;0.48;248.31;0.00;0.00;0.62;;;;;29.40;1.00;;;;;;2268333;61;1360;-88
2022/08/11 12:09:19;509862.00;1.70;878.80;0.00;0.00;0.62;;;;;29.30;1.00;;;;;;2276647;61;1970;-82
2022/08/11 12:14:32;0.00;0.00;0.62;0.00;0.00;0.62;;;;;29.50;1.00;;;;;;2267294;61;1330;-85
2022/08/11 12:17:01;155708.00;0.52;269.64;0.00;0.00;0.62;;;;;29.40;1.00;;;;;;2266973;61;1050;-83
2022/08/11 12:19:29;154233.00;0.51;267.10;0.00;0.00;0.62;;;;;29.00;1.00;;;;;;2266521;61;894;-84
2022/08/11 12:30:07;0.00;0.00;0.62;0.00;0.00;0.62;;;;;29.10;1.00;;;;;;2264960;61;2027;-80
2022/08/11 12:32:36;0.00;0.00;0.62;0.00;0.00;0.62;;;;;28.90;1.00;;;;;;2264169;61;1130;-84
2022/08/11 12:35:05;0.00;0.00;0.62;0.00;0.00;0.62;;;;;28.90;1.00;;;;;;2264199;61;1377;-83
2022/08/11 12:37:36;0.00;0.00;0.62;0.00;0.00;0.62;;;;;29.30;1.00;;;;;;2264076;61;1728;-84
2022/08/11 12:45:43;104233.00;0.35;180.88;38741.00;0.13;67.71;;;;;28.90;1.00;;;;;;2264148;61;1356;-84
2022/08/11 12:53:57;0.00;0.00;0.62;0.00;0.00;0.62;;;;;28.70;1.00;;;;;;2263339;61;705;-79
2022/08/11 13:04:58;87855.00;0.29;152.60;0.00;0.00;0.62;;;;;28.20;1.00;;;;;;2263802;61;1385;-80
2022/08/11 13:07:26;0.00;0.00;0.62;0.00;0.00;0.62;;;;;28.50;1.00;;;;;;2263812;61;1089;-85
2022/08/11 13:09:55;0.00;0.00;0.62;0.00;0.00;0.62;;;;;29.00;1.00;;;;;;2263574;61;1931;-80
2022/08/11 13:15:13;0.00;0.00;0.62;0.00;0.00;0.62;;;;;28.20;1.00;;;;;;2263682;61;1440;-81
2022/08/11 13:17:42;70454.00;0.23;122.54;0.00;0.00;0.62;;;;;28.30;1.00;;;;;;2263369;61;1289;-79
2022/08/11 13:20:11;0.00;0.00;0.62;0.00;0.00;0.62;;;;;28.20;1.00;;;;;;2263455;61;1140;-81
2022/08/11 13:22:44;36547.00;0.12;63.91;0.00;0.00;0.62;;;;;28.70;1.00;;;;;;2263319;61;1174;-81
2022/08/11 13:25:14;201212.00;0.67;348.01;0.00;0.00;0.62;;;;;28.60;1.00;;;;;;2264196;61;1502;-80
2022/08/11 13:27:42;0.00;0.00;0.62;0.00;0.00;0.62;;;;;28.90;1.00;;;;;;2264654;61;1109;-84
2022/08/11 13:32:56;0.00;0.00;0.62;0.00;0.00;0.62;;;;;28.80;1.00;;;;;;2264630;61;700;-81
2022/08/11 13:35:24;0.00;0.00;0.62;0.00;0.00;0.62;;;;;28.50;1.00;;;;;;2264169;61;1348;-81
2022/08/11 13:37:51;0.00;0.00;0.62;0.00;0.00;0.62;;;;;28.10;1.00;;;;;;2263848;61;1178;-81
2022/08/11 13:40:21;0.00;0.00;0.62;0.00;0.00;0.62;;;;;28.10;1.00;;;;;;2263676;61;1167;-81
2022/08/11 13:42:50;71686.00;0.24;124.67;0.00;0.00;0.62;;;;;28.00;1.00;;;;;;2263948;61;1150;-82
2022/08/11 13:45:17;0.00;0.00;0.62;0.00;0.00;0.62;;;;;28.50;1.00;;;;;;2263640;61;1307;-80
2022/08/11 13:47:45;355663.00;1.19;613.59;61725.00;0.21;107.46;;;;;28.30;1.00;;;;;;2263938;61;1103;-82
2022/08/11 13:50:15;37424.00;0.12;65.43;0.00;0.00;0.62;;;;;28.40;1.00;;;;;;2264592;61;2023;-80
2022/08/11 13:52:43;0.00;0.00;0.62;0.00;0.00;0.62;;;;;28.40;1.00;;;;;;2263910;61;1190;-81
2022/08/11 13:55:20;216111.00;0.72;373.65;29635.00;0.10;51.95;;;;;28.90;1.00;;;;;;2264044;61;1363;-81
2022/08/11 13:57:49;0.00;0.00;0.62;0.00;0.00;0.62;;;;;29.40;1.00;;;;;;2264287;61;1065;-82
2022/08/11 14:00:17;334351.00;1.11;576.96;157644.00;0.53;272.98;;;;;29.40;1.00;;;;;;2263886;61;1086;-83
2022/08/11 14:02:48;563.00;0.00;1.60;0.00;0.00;0.62;;;;;29.20;1.00;;;;;;2264706;61;1085;-84
2022/08/11 14:05:18;0.00;0.00;0.62;0.00;0.00;0.62;;;;;29.10;1.00;;;;;;2264372;61;1452;-79
2022/08/11 14:07:49;30621.00;0.10;53.66;0.00;0.00;0.62;;;;;28.90;1.00;;;;;;2263973;61;1133;-80
2022/08/11 14:10:19;61318.00;0.20;106.76;0.00;0.00;0.62;;;;;28.90;1.00;;;;;;2263621;61;1936;-79
2022/08/11 14:15:43;162296.00;0.54;281.00;96504.00;0.32;167.54;;;;;28.50;1.00;;;;;;2263360;61;1429;-80
2022/08/11 14:18:18;0.00;0.00;0.62;0.00;0.00;0.62;;;;;28.70;1.00;;;;;;2264003;61;1159;-81
2022/08/11 14:23:40;650943.00;2.17;1122.27;295986.00;0.99;511.02;;;;;29.00;1.00;;;;;;2263792;61;662;-81
2022/08/11 14:26:26;201429.00;0.67;348.38;65275.00;0.22;113.59;;;;;28.90;1.00;;;;;;2263772;61;1390;-79
2022/08/11 14:28:57;82336.00;0.27;143.07;0.00;0.00;0.62;;;;;28.90;1.00;;;;;;2263185;61;1989;-81
2022/08/11 14:31:27;54424.00;0.18;94.84;0.00;0.00;0.62;;;;;28.70;1.00;;;;;;2263846;61;1421;-81
2022/08/11 14:33:56;183993.00;0.61;318.37;33101.00;0.11;57.95;;;;;28.80;1.00;;;;;;2263615;61;1131;-80
2022/08/11 14:36:28;55914.00;0.19;97.41;0.00;0.00;0.62;;;;;28.50;1.00;;;;;;2262889;61;1412;-81
2022/08/11 14:38:55;91380.00;0.30;158.69;0.00;0.00;0.62;;;;;28.80;1.00;;;;;;2262549;61;1228;-79
2022/08/11 14:47:05;151603.00;0.51;262.57;18509.00;0.06;32.69;;;;;28.90;1.00;;;;;;2264467;61;645;-83
2022/08/11 14:49:35;33133.00;0.11;58.01;0.00;0.00;0.62;;;;;29.20;1.00;;;;;;2263647;61;1920;-82
2022/08/11 14:52:07;104882.00;0.35;182.00;28293.00;0.09;49.63;;;;;29.30;1.00;;;;;;2263902;61;1161;-80
2022/08/11 14:57:23;265.00;0.00;1.08;0.00;0.00;0.62;;;;;28.70;1.00;;;;;;2263298;61;714;-81
2022/08/11 14:59:52;44107.00;0.15;76.99;0.00;0.00;0.62;;;;;28.50;1.00;;;;;;2263599;61;1114;-80